Time;durP1;ratioP1;P1;durP2;ratioP2;P2;SDS_P1;SDS_P2;PMS_P1;PMS_P2;Temp;Humidity;BMP_temperature;BMP_pressure;BME280_temperature;BME280_humidity;BME280_pressure;Samples;Min_cycle;Max_cycle;Signal;HPM_P1;HPM_P2
2023/10/31 00:02:11;;;;;;;4.75;1.10;;;10.60;99.90;;;;;;5043923;28;20114;-65
2023/10/31 00:04:37;;;;;;;4.68;1.05;;;10.50;99.90;;;;;;5027491;28;20123;-65
2023/10/31 00:07:03;;;;;;;4.22;1.30;;;10.50;99.90;;;;;;5046430;28;20441;-65
2023/10/31 00:09:29;;;;;;;5.13;0.80;;;10.50;99.90;;;;;;5045119;28;20047;-65
2023/10/31 00:11:55;;;;;;;1.38;0.82;;;10.50;99.90;;;;;;5048031;28;20044;-65
2023/10/31 00:14:20;;;;;;;2.67;0.90;;;10.50;99.90;;;;;;5050652;28;20045;-65
2023/10/31 00:16:48;;;;;;;2.92;1.13;;;10.50;99.90;;;;;;5036093;28;20044;-65
2023/10/31 00:19:14;;;;;;;4.25;1.00;;;10.50;99.90;;;;;;5065592;28;20554;-65
2023/10/31 00:21:40;;;;;;;2.42;0.75;;;10.50;99.90;;;;;;5056453;28;20113;-65
2023/10/31 00:24:06;;;;;;;2.53;0.70;;;10.50;99.90;;;;;;5066623;28;20051;-65
2023/10/31 00:26:31;;;;;;;4.43;0.90;;;10.50;99.90;;;;;;5030005;28;20139;-65
2023/10/31 00:28:57;;;;;;;5.22;1.13;;;10.50;99.90;;;;;;5055268;28;20107;-65
2023/10/31 00:31:24;;;;;;;2.97;1.00;;;10.50;99.90;;;;;;5042393;28;20049;-65
2023/10/31 00:33:50;;;;;;;2.92;1.20;;;10.40;99.90;;;;;;5054782;28;20401;-65
2023/10/31 00:36:16;;;;;;;1.85;1.00;;;10.50;99.90;;;;;;5065040;28;20105;-65
2023/10/31 00:38:41;;;;;;;2.00;0.82;;;10.50;99.90;;;;;;5057561;28;20040;-65
2023/10/31 00:41:07;;;;;;;2.58;1.00;;;10.50;99.90;;;;;;5046246;28;20040;-65
2023/10/31 00:43:33;;;;;;;4.07;1.20;;;10.40;99.90;;;;;;5063232;28;20079;-65
2023/10/31 00:45:58;;;;;;;8.00;1.40;;;10.50;99.90;;;;;;5065856;28;20056;-65
2023/10/31 00:48:24;;;;;;;2.92;1.20;;;10.50;99.90;;;;;;5034455;28;20061;-65
2023/10/31 00:50:50;;;;;;;5.43;1.88;;;10.50;99.90;;;;;;4999728;28;20048;-65
2023/10/31 00:53:16;;;;;;;2.08;1.25;;;10.50;99.90;;;;;;5044071;28;20475;-65
2023/10/31 00:55:42;;;;;;;2.17;0.90;;;10.50;99.90;;;;;;5045171;28;20885;-65
2023/10/31 00:58:08;;;;;;;3.20;1.05;;;10.50;99.90;;;;;;5044704;28;20380;-66
2023/10/31 01:00:34;;;;;;;4.10;0.98;;;10.40;99.90;;;;;;5045105;28;20047;-66
2023/10/31 01:03:00;;;;;;;6.35;0.75;;;10.40;99.90;;;;;;5023886;28;20054;-66
2023/10/31 01:05:29;;;;;;;6.25;0.93;;;10.40;99.90;;;;;;5024542;28;20052;-66
2023/10/31 01:07:55;;;;;;;1.17;0.90;;;10.40;99.90;;;;;;5032651;28;20048;-66
2023/10/31 01:10:21;;;;;;;6.22;1.13;;;10.40;99.90;;;;;;5006432;28;20121;-65
2023/10/31 01:12:46;;;;;;;4.80;1.30;;;10.50;99.90;;;;;;5003942;28;20178;-65
2023/10/31 01:15:12;;;;;;;4.40;1.33;;;10.50;99.90;;;;;;5025065;28;20053;-66
2023/10/31 01:17:38;;;;;;;7.20;1.45;;;10.50;99.90;;;;;;5008050;28;20049;-65
2023/10/31 01:20:05;;;;;;;6.90;1.00;;;10.50;99.90;;;;;;5025353;28;20037;-66
2023/10/31 01:22:30;;;;;;;5.82;0.98;;;10.50;99.90;;;;;;5024381;28;20167;-66
2023/10/31 01:24:56;;;;;;;7.53;0.98;;;10.40;99.90;;;;;;5027589;28;20134;-66
2023/10/31 01:27:22;;;;;;;7.95;0.80;;;10.50;99.90;;;;;;5010810;28;20052;-65
2023/10/31 01:29:47;;;;;;;2.25;0.80;;;10.40;99.90;;;;;;5029055;28;20053;-66
2023/10/31 01:32:13;;;;;;;1.38;0.70;;;10.50;99.90;;;;;;5010500;28;20056;-65
2023/10/31 01:34:39;;;;;;;1.70;0.80;;;10.40;99.90;;;;;;5028548;28;20115;-66
2023/10/31 01:37:04;;;;;;;3.90;0.77;;;10.40;99.90;;;;;;5028850;28;20045;-66
2023/10/31 01:39:30;;;;;;;5.38;0.90;;;10.50;99.90;;;;;;5028498;28;20049;-65
2023/10/31 01:41:56;;;;;;;3.00;1.00;;;10.50;99.90;;;;;;5013377;28;20535;-65
2023/10/31 01:44:22;;;;;;;4.40;1.00;;;10.50;99.90;;;;;;5028483;28;20045;-66
2023/10/31 01:46:47;;;;;;;8.68;1.05;;;10.50;99.90;;;;;;5011074;28;20491;-66
2023/10/31 01:49:14;;;;;;;5.55;0.70;;;10.50;99.90;;;;;;5031862;28;20087;-66
2023/10/31 01:51:41;;;;;;;9.77;0.77;;;10.50;99.90;;;;;;5054738;28;20057;-66
2023/10/31 01:54:10;;;;;;;3.75;0.82;;;10.60;99.90;;;;;;5048493;28;20375;-66
2023/10/31 01:56:36;;;;;;;8.48;0.73;;;10.60;99.90;;;;;;5029992;28;20057;-66
2023/10/31 01:59:02;;;;;;;8.38;0.68;;;10.60;99.90;;;;;;5030610;28;20048;-67
2023/10/31 02:01:28;;;;;;;6.57;0.85;;;10.60;99.90;;;;;;5039170;28;20102;-66
2023/10/31 02:03:54;;;;;;;3.28;0.52;;;10.60;99.90;;;;;;5048407;28;20107;-66
2023/10/31 02:06:21;;;;;;;2.85;0.80;;;10.50;99.90;;;;;;5049259;28;20711;-66
2023/10/31 02:08:48;;;;;;;2.30;0.57;;;10.40;99.90;;;;;;5027913;28;20061;-66
2023/10/31 02:11:13;;;;;;;4.07;0.47;;;10.40;99.90;;;;;;5030010;28;20140;-66
2023/10/31 02:13:39;;;;;;;4.50;0.65;;;10.40;99.90;;;;;;5047753;28;20140;-66
2023/10/31 02:16:05;;;;;;;3.50;0.60;;;10.30;99.90;;;;;;5048088;28;20037;-66
2023/10/31 02:18:31;;;;;;;1.00;0.43;;;10.20;99.90;;;;;;5057647;28;20033;-66
2023/10/31 02:20:58;;;;;;;4.72;0.47;;;10.20;99.90;;;;;;5048267;28;20075;-66
2023/10/31 02:23:23;;;;;;;1.42;0.32;;;10.00;99.90;;;;;;5029529;28;20051;-66
2023/10/31 02:25:49;;;;;;;2.35;0.70;;;10.00;99.90;;;;;;5030453;28;20124;-66
2023/10/31 02:28:15;;;;;;;3.47;0.32;;;9.90;99.90;;;;;;5037044;28;20064;-66
2023/10/31 02:30:41;;;;;;;5.53;0.55;;;10.00;99.90;;;;;;5013231;28;20132;-67
2023/10/31 02:33:06;;;;;;;5.63;0.60;;;10.00;99.90;;;;;;5029127;28;20131;-66
2023/10/31 02:35:32;;;;;;;4.13;0.55;;;10.10;99.90;;;;;;5028738;28;20140;-66
2023/10/31 02:37:58;;;;;;;3.42;0.50;;;10.10;99.90;;;;;;5047478;28;20037;-66
2023/10/31 02:40:23;;;;;;;3.90;0.65;;;10.20;99.90;;;;;;5029261;28;20037;-66
2023/10/31 02:42:49;;;;;;;5.40;0.60;;;10.30;99.90;;;;;;5029789;28;20056;-66
2023/10/31 02:45:15;;;;;;;3.10;0.50;;;10.30;99.90;;;;;;5047355;28;20105;-66
2023/10/31 02:47:40;;;;;;;5.43;0.75;;;10.30;99.90;;;;;;5045063;28;20042;-66
2023/10/31 02:50:07;;;;;;;5.22;0.50;;;10.30;99.90;;;;;;5010093;28;20089;-66
2023/10/31 02:52:32;;;;;;;3.95;0.63;;;10.30;99.90;;;;;;5027680;28;20041;-66
2023/10/31 02:54:58;;;;;;;5.38;0.70;;;10.30;99.90;;;;;;5027115;28;20507;-66
2023/10/31 02:57:24;;;;;;;4.78;0.50;;;10.20;99.90;;;;;;5027045;28;20600;-66
2023/10/31 02:59:49;;;;;;;8.85;0.60;;;10.20;99.90;;;;;;5023972;28;20427;-66
2023/10/31 03:02:15;;;;;;;12.40;0.68;;;10.10;99.90;;;;;;5026782;28;20549;-66
2023/10/31 03:04:41;;;;;;;1.48;0.45;;;10.20;99.90;;;;;;5027612;28;20602;-66
2023/10/31 03:07:06;;;;;;;2.75;0.55;;;10.10;99.90;;;;;;5008885;28;20052;-66
2023/10/31 03:09:32;;;;;;;3.50;0.55;;;10.10;99.90;;;;;;5027600;28;20041;-66
2023/10/31 03:11:58;;;;;;;5.95;0.68;;;10.20;99.90;;;;;;5009112;28;20058;-66
2023/10/31 03:14:25;;;;;;;4.65;0.47;;;10.10;99.90;;;;;;5026637;28;20087;-66
2023/10/31 03:16:50;;;;;;;3.88;0.45;;;10.10;99.90;;;;;;5026964;28;20049;-66
2023/10/31 03:19:16;;;;;;;4.03;1.05;;;10.10;99.90;;;;;;5027871;28;20038;-66
2023/10/31 03:21:42;;;;;;;5.53;1.02;;;10.20;99.90;;;;;;5039714;28;20098;-66
2023/10/31 03:24:07;;;;;;;2.88;0.50;;;10.10;99.90;;;;;;5008242;28;20085;-66
2023/10/31 03:26:33;;;;;;;2.28;1.27;;;10.10;99.90;;;;;;5009370;28;20057;-66
2023/10/31 03:28:59;;;;;;;1.08;0.40;;;10.10;99.90;;;;;;5026116;28;20041;-67
2023/10/31 03:31:25;;;;;;;3.17;0.60;;;10.10;99.90;;;;;;5010450;28;20053;-66
2023/10/31 03:33:51;;;;;;;5.50;0.60;;;10.10;99.90;;;;;;5017919;28;20053;-66
2023/10/31 03:36:17;;;;;;;2.20;0.57;;;10.20;99.90;;;;;;5012100;28;20071;-66
2023/10/31 03:38:43;;;;;;;5.57;0.70;;;10.20;99.90;;;;;;5009296;28;20034;-66
2023/10/31 03:41:10;;;;;;;8.60;1.00;;;10.30;99.90;;;;;;5008136;28;20054;-66
2023/10/31 03:43:36;;;;;;;3.42;1.02;;;10.20;99.90;;;;;;5027900;28;20475;-66
2023/10/31 03:46:02;;;;;;;9.32;1.45;;;10.30;99.90;;;;;;4984367;28;20047;-66
2023/10/31 03:48:28;;;;;;;10.85;1.45;;;10.30;99.90;;;;;;5013831;28;20122;-66
2023/10/31 03:50:53;;;;;;;4.95;1.13;;;10.20;99.90;;;;;;5045655;28;20128;-66
2023/10/31 03:53:19;;;;;;;6.40;0.90;;;10.20;99.90;;;;;;5011620;28;20446;-66
2023/10/31 03:55:45;;;;;;;8.27;1.60;;;10.20;99.90;;;;;;5028565;28;20048;-66
2023/10/31 03:58:11;;;;;;;3.88;1.35;;;10.20;99.90;;;;;;5045368;28;20052;-65
2023/10/31 04:00:38;;;;;;;8.05;1.80;;;10.30;99.90;;;;;;5026303;28;20049;-66
2023/10/31 04:03:04;;;;;;;12.45;2.08;;;10.20;99.90;;;;;;5026973;28;20045;-66
2023/10/31 04:05:29;;;;;;;11.02;1.90;;;10.20;99.90;;;;;;5046284;28;20041;-66
2023/10/31 04:07:55;;;;;;;12.00;2.08;;;10.20;99.90;;;;;;5045942;28;20049;-66
2023/10/31 04:10:21;;;;;;;6.53;2.10;;;10.20;99.90;;;;;;5024614;28;20069;-66
2023/10/31 04:12:46;;;;;;;10.13;1.65;;;10.20;99.90;;;;;;5028136;28;20072;-66
2023/10/31 04:15:12;;;;;;;11.32;2.10;;;10.40;99.90;;;;;;5035830;28;20044;-66
2023/10/31 04:17:38;;;;;;;16.88;5.70;;;10.30;99.90;;;;;;5031628;28;21397;-66
2023/10/31 04:20:04;;;;;;;19.17;4.70;;;10.40;99.90;;;;;;5043743;28;20056;-66
2023/10/31 04:22:30;;;;;;;9.48;3.05;;;10.40;99.90;;;;;;5046309;28;20514;-67
2023/10/31 04:24:56;;;;;;;15.82;4.63;;;10.40;99.90;;;;;;5027087;28;20044;-67
2023/10/31 04:27:22;;;;;;;9.30;3.83;;;10.30;99.90;;;;;;5049319;28;20036;-66
2023/10/31 04:29:48;;;;;;;14.18;4.38;;;10.40;99.90;;;;;;5031245;28;20044;-66
2023/10/31 04:32:14;;;;;;;14.95;4.15;;;10.30;99.90;;;;;;5037059;28;20051;-66
2023/10/31 04:34:40;;;;;;;8.00;2.78;;;10.30;99.90;;;;;;5048192;28;20052;-66
2023/10/31 04:37:06;;;;;;;1.67;0.82;;;10.40;99.90;;;;;;5022969;28;20507;-67
2023/10/31 04:39:32;;;;;;;5.05;1.52;;;10.30;99.90;;;;;;5041106;28;20582;-67
2023/10/31 04:41:57;;;;;;;8.15;3.92;;;10.40;99.90;;;;;;5026977;28;20151;-67
2023/10/31 04:44:23;;;;;;;10.85;1.80;;;10.40;99.90;;;;;;5028074;28;20086;-67
2023/10/31 04:46:49;;;;;;;6.88;1.52;;;10.30;99.90;;;;;;5027324;28;20072;-66
2023/10/31 04:49:17;;;;;;;2.15;0.88;;;10.30;99.90;;;;;;5027162;28;20090;-66
2023/10/31 04:51:43;;;;;;;1.42;0.70;;;10.30;99.90;;;;;;5007698;28;20056;-67
2023/10/31 04:54:09;;;;;;;2.72;0.98;;;10.30;99.90;;;;;;5024811;28;20045;-67
2023/10/31 04:56:36;;;;;;;5.15;0.80;;;10.20;99.90;;;;;;5025929;28;20044;-67
2023/10/31 04:59:02;;;;;;;5.65;0.90;;;10.30;99.90;;;;;;5025922;28;20400;-67
2023/10/31 05:01:27;;;;;;;3.30;0.98;;;10.30;99.90;;;;;;5019310;28;20041;-67
2023/10/31 05:03:53;;;;;;;1.63;0.63;;;10.30;99.90;;;;;;5022796;28;20307;-67
2023/10/31 05:06:20;;;;;;;3.25;1.05;;;10.30;99.90;;;;;;5008258;28;20045;-67
2023/10/31 05:08:46;;;;;;;4.85;0.73;;;10.30;99.90;;;;;;5006229;28;20042;-67
2023/10/31 05:11:12;;;;;;;6.82;1.20;;;10.30;99.90;;;;;;5002697;28;20056;-67
2023/10/31 05:13:39;;;;;;;0.95;0.80;;;10.30;99.90;;;;;;5029945;28;20049;-67
2023/10/31 05:16:05;;;;;;;2.22;1.00;;;10.30;99.90;;;;;;5029193;28;20045;-66
2023/10/31 05:18:31;;;;;;;3.47;0.55;;;10.40;99.90;;;;;;5030140;28;20436;-66
2023/10/31 05:20:56;;;;;;;4.70;1.10;;;10.30;99.90;;;;;;5030938;28;20051;-66
2023/10/31 05:23:22;;;;;;;2.97;1.23;;;10.40;99.90;;;;;;5011032;28;20037;-67
2023/10/31 05:25:48;;;;;;;1.70;1.08;;;10.30;99.90;;;;;;5030275;28;20042;-66
2023/10/31 05:28:13;;;;;;;3.95;1.08;;;10.30;99.90;;;;;;5028446;28;20495;-66
2023/10/31 05:30:39;;;;;;;1.17;0.77;;;10.30;99.90;;;;;;5039107;28;20045;-67
2023/10/31 05:33:05;;;;;;;4.82;0.98;;;10.20;99.90;;;;;;5010531;28;20107;-67
2023/10/31 05:35:31;;;;;;;1.05;0.52;;;10.30;99.90;;;;;;5011909;28;20495;-67
2023/10/31 05:37:56;;;;;;;4.75;1.20;;;10.20;99.90;;;;;;5029385;28;20045;-67
2023/10/31 05:40:24;;;;;;;3.33;0.63;;;10.20;99.90;;;;;;5028987;28;20546;-67
2023/10/31 05:42:50;;;;;;;1.27;0.60;;;10.20;99.90;;;;;;5028521;28;20060;-68
2023/10/31 05:45:16;;;;;;;0.95;0.50;;;10.20;99.90;;;;;;5010482;28;20049;-67
2023/10/31 05:47:42;;;;;;;1.85;0.50;;;10.20;99.90;;;;;;5034644;28;20093;-67
2023/10/31 05:50:08;;;;;;;2.20;0.70;;;10.10;99.90;;;;;;4995479;28;20053;-67
2023/10/31 05:52:34;;;;;;;1.75;0.60;;;10.10;99.90;;;;;;5018581;28;20053;-67
2023/10/31 05:55:00;;;;;;;0.95;0.35;;;10.10;99.90;;;;;;5010137;28;20087;-67
2023/10/31 05:57:25;;;;;;;0.50;0.50;;;10.10;99.90;;;;;;5029222;28;20124;-67
2023/10/31 05:59:51;;;;;;;0.93;0.30;;;10.10;99.90;;;;;;5010215;28;20057;-67
2023/10/31 06:02:17;;;;;;;0.30;0.10;;;10.00;99.90;;;;;;5011562;28;20061;-67
2023/10/31 06:04:43;;;;;;;2.90;0.30;;;10.00;99.90;;;;;;5010946;28;20052;-67
2023/10/31 06:07:10;;;;;;;0.47;0.20;;;10.00;99.90;;;;;;5027948;28;20477;-67
2023/10/31 06:09:35;;;;;;;0.50;0.30;;;10.00;99.90;;;;;;5028677;28;20037;-67
2023/10/31 06:12:01;;;;;;;1.15;0.20;;;10.00;99.90;;;;;;5017339;28;20067;-67
2023/10/31 06:14:27;;;;;;;1.60;0.22;;;10.00;99.90;;;;;;5012149;28;20045;-67
2023/10/31 06:16:54;;;;;;;0.43;0.30;;;9.90;99.90;;;;;;5027591;28;20510;-67
2023/10/31 06:19:20;;;;;;;2.72;0.30;;;10.00;99.90;;;;;;5028242;28;20077;-67
2023/10/31 06:21:46;;;;;;;0.20;0.20;;;10.00;99.90;;;;;;5012871;28;20537;-67
2023/10/31 06:24:12;;;;;;;0.30;0.30;;;10.00;99.90;;;;;;4985404;28;20484;-67
2023/10/31 06:26:38;;;;;;;0.25;0.20;;;10.10;99.90;;;;;;5028287;28;20041;-67
2023/10/31 06:29:04;;;;;;;1.73;0.20;;;10.10;99.90;;;;;;5010195;28;20468;-67
2023/10/31 06:31:29;;;;;;;0.20;0.20;;;10.20;99.90;;;;;;5027125;28;20274;-67
2023/10/31 06:33:55;;;;;;;0.63;0.30;;;10.20;99.90;;;;;;5009715;28;20494;-67
2023/10/31 06:36:21;;;;;;;0.20;0.17;;;10.20;99.90;;;;;;5027972;28;20060;-67
2023/10/31 06:38:47;;;;;;;1.02;0.45;;;10.20;99.90;;;;;;5009790;28;20396;-67
2023/10/31 06:41:13;;;;;;;0.35;0.30;;;10.30;99.90;;;;;;5027768;28;20045;-67
2023/10/31 06:43:39;;;;;;;0.85;0.40;;;10.30;99.90;;;;;;5010933;28;20049;-67
2023/10/31 06:46:05;;;;;;;0.40;0.40;;;10.30;99.90;;;;;;5009859;28;20049;-67
2023/10/31 06:48:31;;;;;;;1.10;0.30;;;10.30;99.90;;;;;;5027600;28;20061;-67
2023/10/31 06:50:57;;;;;;;0.70;0.20;;;10.30;99.90;;;;;;5013620;28;20057;-67
2023/10/31 06:53:22;;;;;;;1.15;0.38;;;10.20;99.90;;;;;;5030551;28;20057;-67
2023/10/31 06:55:48;;;;;;;1.67;0.65;;;10.30;99.90;;;;;;5027101;28;20125;-67
2023/10/31 06:58:14;;;;;;;3.85;0.52;;;10.30;99.90;;;;;;5027578;28;20408;-67
2023/10/31 07:00:40;;;;;;;0.85;0.38;;;10.30;99.90;;;;;;5009374;28;20480;-67
2023/10/31 07:03:09;;;;;;;0.10;0.10;;;10.30;99.90;;;;;;5029739;28;20041;-66
2023/10/31 07:05:36;;;;;;;0.30;0.20;;;10.40;99.90;;;;;;5027157;28;20395;-66
2023/10/31 07:08:03;;;;;;;0.57;0.57;;;10.40;99.90;;;;;;5009104;28;20055;-66
2023/10/31 07:10:29;;;;;;;1.35;0.30;;;10.30;99.90;;;;;;5027254;28;20476;-66
2023/10/31 07:12:55;;;;;;;0.45;0.45;;;10.40;99.90;;;;;;5010004;28;20403;-66
2023/10/31 07:15:21;;;;;;;0.20;0.20;;;10.40;99.90;;;;;;5027369;28;20041;-66
2023/10/31 07:17:47;;;;;;;1.83;0.93;;;10.40;99.90;;;;;;5026878;28;20131;-66
2023/10/31 07:20:13;;;;;;;1.42;0.55;;;10.30;99.90;;;;;;5027189;28;20128;-66
2023/10/31 07:22:39;;;;;;;0.43;0.30;;;10.40;99.90;;;;;;5008819;28;20057;-66
2023/10/31 07:25:06;;;;;;;1.02;0.38;;;10.40;99.90;;;;;;5026848;28;20045;-66
2023/10/31 07:27:32;;;;;;;0.77;0.55;;;10.40;99.90;;;;;;5026888;28;20495;-66
2023/10/31 07:29:58;;;;;;;0.32;0.32;;;10.50;99.90;;;;;;5008306;28;20087;-66
2023/10/31 07:32:25;;;;;;;0.80;0.40;;;10.50;99.90;;;;;;5025973;28;20049;-66
2023/10/31 07:34:52;;;;;;;2.92;0.68;;;10.40;99.90;;;;;;5026957;28;20052;-66
2023/10/31 07:37:17;;;;;;;1.48;0.70;;;10.50;99.90;;;;;;5026758;28;20037;-66
2023/10/31 07:39:43;;;;;;;1.08;0.47;;;10.40;99.90;;;;;;5008327;28;20048;-66
2023/10/31 07:42:09;;;;;;;0.55;0.47;;;10.50;99.90;;;;;;5032136;28;20055;-66
2023/10/31 07:44:35;;;;;;;0.30;0.30;;;10.50;99.90;;;;;;5037638;28;20110;-66
2023/10/31 07:47:00;;;;;;;0.55;0.52;;;10.50;99.90;;;;;;5025394;28;20092;-66
2023/10/31 07:49:26;;;;;;;3.30;0.52;;;10.50;99.90;;;;;;5001506;28;20053;-66
2023/10/31 07:51:52;;;;;;;1.08;0.60;;;10.60;99.90;;;;;;5026165;28;20052;-66
2023/10/31 07:54:18;;;;;;;2.10;0.60;;;10.50;99.90;;;;;;5026622;28;20053;-66
2023/10/31 07:56:44;;;;;;;4.55;0.68;;;10.50;99.90;;;;;;5007696;28;20049;-66
2023/10/31 07:59:10;;;;;;;2.80;0.47;;;10.50;99.90;;;;;;5026208;28;20053;-66
2023/10/31 08:01:37;;;;;;;1.48;0.50;;;10.60;99.90;;;;;;5013443;28;20103;-66
2023/10/31 08:04:03;;;;;;;1.35;0.50;;;10.60;99.90;;;;;;5030123;28;20041;-66
2023/10/31 08:06:28;;;;;;;1.92;0.68;;;10.50;99.90;;;;;;5042889;28;20044;-66
2023/10/31 08:08:55;;;;;;;0.85;0.63;;;10.60;99.90;;;;;;5008894;28;20106;-66
2023/10/31 08:11:20;;;;;;;7.88;0.75;;;10.60;99.90;;;;;;5030164;28;20075;-66
2023/10/31 08:13:46;;;;;;;0.93;0.60;;;10.70;99.90;;;;;;5026262;28;20128;-66
2023/10/31 08:16:18;;;;;;;0.65;0.47;;;10.70;99.90;;;;;;4987970;28;20126;-66
2023/10/31 08:18:44;;;;;;;2.70;0.40;;;10.70;99.90;;;;;;5009352;28;20129;-66
2023/10/31 08:21:11;;;;;;;2.72;0.50;;;10.70;99.90;;;;;;5016995;28;20128;-65
2023/10/31 08:23:37;;;;;;;3.92;0.50;;;10.70;99.90;;;;;;5041299;28;20053;-66
2023/10/31 08:26:03;;;;;;;2.10;0.50;;;10.80;99.90;;;;;;5027500;28;20072;-65
2023/10/31 08:28:30;;;;;;;2.05;0.45;;;10.80;99.90;;;;;;5027555;28;20110;-66
2023/10/31 08:30:57;;;;;;;0.35;0.30;;;10.80;99.90;;;;;;5010623;28;20045;-66
2023/10/31 08:33:23;;;;;;;0.85;0.43;;;10.90;99.90;;;;;;5013048;28;20090;-66
2023/10/31 08:35:50;;;;;;;4.88;0.50;;;10.80;99.90;;;;;;5025178;28;20392;-66
2023/10/31 08:38:16;;;;;;;0.38;0.20;;;10.90;99.90;;;;;;5005572;28;20054;-65
2023/10/31 08:40:42;;;;;;;1.95;0.40;;;10.90;99.90;;;;;;5021978;28;20404;-65
2023/10/31 08:43:07;;;;;;;3.58;0.40;;;11.00;99.90;;;;;;5034197;28;20057;-66
2023/10/31 08:45:33;;;;;;;0.68;0.50;;;11.00;99.90;;;;;;5015095;28;20413;-66
2023/10/31 08:48:00;;;;;;;2.10;0.20;;;11.00;99.90;;;;;;5025882;28;20049;-65
2023/10/31 08:50:26;;;;;;;2.47;0.52;;;11.10;99.90;;;;;;5025733;28;20057;-65
2023/10/31 08:52:52;;;;;;;0.20;0.20;;;11.10;99.90;;;;;;5005436;28;20100;-65
2023/10/31 08:55:18;;;;;;;1.67;0.40;;;11.20;99.90;;;;;;5025164;28;20143;-65
2023/10/31 08:57:44;;;;;;;7.18;0.70;;;11.20;99.90;;;;;;5024288;28;20160;-65
2023/10/31 09:00:10;;;;;;;0.70;0.30;;;11.20;99.90;;;;;;5022410;28;20052;-65
2023/10/31 09:02:35;;;;;;;2.97;0.38;;;11.20;99.90;;;;;;5025740;28;20771;-65
2023/10/31 09:05:01;;;;;;;5.05;0.52;;;11.30;99.90;;;;;;5023160;28;20050;-65
2023/10/31 09:07:27;;;;;;;1.00;0.50;;;11.30;99.90;;;;;;5025180;28;20122;-65
2023/10/31 09:09:53;;;;;;;1.98;0.50;;;11.30;99.90;;;;;;5023689;28;20056;-65
2023/10/31 09:12:18;;;;;;;3.08;0.50;;;11.40;99.90;;;;;;5012644;28;20143;-65
2023/10/31 09:14:45;;;;;;;9.05;0.98;;;11.50;99.90;;;;;;5024911;28;20060;-65
2023/10/31 09:17:10;;;;;;;3.67;1.30;;;11.40;99.90;;;;;;5024854;28;20491;-65
2023/10/31 09:19:36;;;;;;;4.28;0.70;;;11.40;99.90;;;;;;5025310;28;20036;-65
2023/10/31 09:22:02;;;;;;;7.85;0.85;;;11.30;99.90;;;;;;5007250;28;20057;-65
2023/10/31 09:24:27;;;;;;;12.63;1.20;;;11.20;99.90;;;;;;4991526;28;20064;-65
2023/10/31 09:26:53;;;;;;;4.75;1.00;;;11.10;99.90;;;;;;5024219;28;20490;-65
2023/10/31 09:29:19;;;;;;;5.90;0.88;;;11.10;99.90;;;;;;5007629;28;20571;-65
2023/10/31 09:31:45;;;;;;;8.50;0.98;;;11.00;99.90;;;;;;5024400;28;20049;-65
2023/10/31 09:34:10;;;;;;;7.82;1.20;;;11.10;99.90;;;;;;5035171;28;20045;-65
2023/10/31 09:36:36;;;;;;;9.00;1.00;;;11.00;99.90;;;;;;5022848;28;20055;-65
2023/10/31 09:39:02;;;;;;;5.63;1.08;;;10.90;99.90;;;;;;5023990;28;20447;-64
2023/10/31 09:41:30;;;;;;;4.28;0.70;;;10.80;99.90;;;;;;5006301;28;20041;-65
2023/10/31 09:43:56;;;;;;;5.95;1.23;;;10.90;99.90;;;;;;5034108;28;20107;-65
2023/10/31 09:46:22;;;;;;;5.00;0.75;;;10.90;99.90;;;;;;5028742;28;20128;-65
2023/10/31 09:48:49;;;;;;;5.05;0.88;;;10.80;99.90;;;;;;5030722;28;20080;-65
2023/10/31 09:51:15;;;;;;;5.32;0.80;;;10.80;99.90;;;;;;5021514;28;20044;-65
2023/10/31 09:53:44;;;;;;;11.50;0.70;;;10.80;99.90;;;;;;5014267;28;20046;-65
2023/10/31 09:56:10;;;;;;;7.97;1.20;;;10.90;99.90;;;;;;5027084;28;20041;-64
2023/10/31 09:58:36;;;;;;;5.80;1.00;;;10.90;99.90;;;;;;5038690;28;20494;-65
2023/10/31 10:01:02;;;;;;;4.45;0.65;;;10.90;99.90;;;;;;5024204;28;20291;-65
2023/10/31 10:03:29;;;;;;;4.85;0.40;;;10.80;99.90;;;;;;5046276;28;20118;-65
2023/10/31 10:05:55;;;;;;;3.45;0.73;;;10.90;99.90;;;;;;5043494;28;20101;-64
2023/10/31 10:08:21;;;;;;;3.58;0.68;;;10.80;99.90;;;;;;5044034;28;20037;-65
2023/10/31 10:10:49;;;;;;;2.45;0.55;;;10.80;99.90;;;;;;5027526;28;20095;-65
2023/10/31 10:13:17;;;;;;;8.02;1.25;;;10.80;99.90;;;;;;5017440;28;20044;-65
2023/10/31 10:15:52;;;;;;;2.28;0.50;;;10.90;99.90;;;;;;5030923;28;20049;-65
2023/10/31 10:18:29;;;;;;;4.70;0.50;;;10.90;99.90;;;;;;5007993;28;20061;-65
2023/10/31 10:20:59;;;;;;;2.05;0.43;;;10.90;99.90;;;;;;5028916;28;20499;-64
2023/10/31 10:23:26;;;;;;;3.10;0.52;;;10.90;99.90;;;;;;5028484;28;20467;-64
2023/10/31 10:25:52;;;;;;;1.52;0.43;;;10.80;99.90;;;;;;5026264;28;20049;-64
2023/10/31 10:28:19;;;;;;;3.35;0.38;;;10.90;99.90;;;;;;5027694;28;20448;-65
2023/10/31 10:30:48;;;;;;;2.95;0.60;;;10.90;99.90;;;;;;5027370;28;20045;-65
2023/10/31 10:33:15;;;;;;;7.40;0.77;;;11.00;99.90;;;;;;5027566;28;20049;-64
2023/10/31 10:35:42;;;;;;;6.20;0.82;;;11.00;99.90;;;;;;5023164;28;20304;-64
2023/10/31 10:38:14;;;;;;;3.03;0.50;;;11.10;99.90;;;;;;5027630;28;20041;-64
2023/10/31 10:40:42;;;;;;;1.33;0.38;;;11.20;99.90;;;;;;4999963;28;20045;-65
2023/10/31 10:43:17;;;;;;;2.83;0.30;;;11.20;99.90;;;;;;5027256;28;20049;-64
2023/10/31 10:45:43;;;;;;;2.38;0.30;;;11.20;99.90;;;;;;4997045;28;20460;-64
2023/10/31 10:48:15;;;;;;;5.47;0.40;;;11.10;99.90;;;;;;4988682;28;20053;-64
2023/10/31 10:50:43;;;;;;;1.65;0.20;;;11.10;99.90;;;;;;5029938;28;20185;-64
2023/10/31 10:53:26;;;;;;;2.45;0.30;;;11.10;99.90;;;;;;5031184;28;20045;-64
2023/10/31 10:55:57;;;;;;;1.20;0.22;;;11.20;99.90;;;;;;5026685;28;20053;-64
2023/10/31 10:58:39;;;;;;;5.50;0.60;;;11.20;99.90;;;;;;5032033;28;20087;-64
2023/10/31 11:01:07;;;;;;;2.35;0.43;;;11.20;99.90;;;;;;5027586;28;20090;-64
2023/10/31 11:03:34;;;;;;;1.73;0.52;;;11.20;99.90;;;;;;5013118;28;20049;-64
2023/10/31 11:06:00;;;;;;;0.98;0.28;;;11.30;99.90;;;;;;5025586;28;20111;-64
2023/10/31 11:08:27;;;;;;;2.88;0.30;;;11.30;99.90;;;;;;5027069;28;20038;-64
2023/10/31 11:10:54;;;;;;;6.40;0.57;;;11.40;99.90;;;;;;5008716;28;20044;-64
2023/10/31 11:13:20;;;;;;;1.77;0.45;;;11.50;99.90;;;;;;5041783;28;20410;-64
2023/10/31 11:15:51;;;;;;;3.92;0.65;;;11.50;99.90;;;;;;5013312;28;20089;-64
2023/10/31 11:18:17;;;;;;;3.55;0.93;;;11.50;99.90;;;;;;5003624;28;20085;-64
2023/10/31 11:20:43;;;;;;;3.40;0.50;;;11.50;99.90;;;;;;5030569;28;20390;-64
2023/10/31 11:23:09;;;;;;;3.58;0.60;;;11.60;99.90;;;;;;5008099;28;20049;-64
2023/10/31 11:25:43;;;;;;;3.05;0.55;;;11.50;99.90;;;;;;5030114;28;20037;-64
2023/10/31 11:28:16;;;;;;;4.30;0.40;;;11.50;99.90;;;;;;5031863;28;20488;-64
2023/10/31 11:30:45;;;;;;;5.47;0.65;;;11.40;99.90;;;;;;5022485;28;20064;-64
2023/10/31 11:33:13;;;;;;;6.00;1.75;;;11.50;99.90;;;;;;5030041;28;20482;-64
2023/10/31 11:35:44;;;;;;;4.22;0.45;;;11.50;99.90;;;;;;5003366;28;20072;-64
2023/10/31 11:38:11;;;;;;;5.13;0.95;;;11.50;99.90;;;;;;5026887;28;20053;-64
2023/10/31 11:40:49;;;;;;;4.93;0.68;;;11.40;99.90;;;;;;5025466;28;20103;-64
2023/10/31 11:43:16;;;;;;;3.40;0.50;;;11.30;99.90;;;;;;5002175;28;20041;-64
2023/10/31 11:45:44;;;;;;;9.55;0.73;;;11.30;99.90;;;;;;5009858;28;20536;-64
2023/10/31 11:48:10;;;;;;;2.95;0.73;;;11.40;99.90;;;;;;5019034;28;20479;-64
2023/10/31 11:50:37;;;;;;;1.75;0.47;;;11.50;99.90;;;;;;5038376;28;20130;-63
2023/10/31 11:53:07;;;;;;;3.67;1.15;;;11.70;99.90;;;;;;5040125;28;20051;-65
2023/10/31 11:55:39;;;;;;;2.65;0.60;;;11.70;99.90;;;;;;5015070;28;20079;-64
2023/10/31 11:58:13;;;;;;;3.58;0.47;;;11.80;99.90;;;;;;5043368;28;20588;-64
2023/10/31 12:00:39;;;;;;;6.47;1.42;;;11.80;99.90;;;;;;5045279;28;20045;-64
2023/10/31 12:03:05;;;;;;;5.28;0.82;;;11.80;99.90;;;;;;5032690;28;20129;-64
2023/10/31 12:05:31;;;;;;;6.20;0.60;;;11.80;99.90;;;;;;5018709;28;20500;-63
2023/10/31 12:07:57;;;;;;;6.00;1.05;;;11.70;99.90;;;;;;5022266;28;20046;-63
2023/10/31 12:10:30;;;;;;;3.45;0.77;;;11.60;99.90;;;;;;5011132;28;20037;-64
2023/10/31 12:12:58;;;;;;;3.05;0.45;;;11.40;99.90;;;;;;4998350;28;20128;-64
2023/10/31 12:15:27;;;;;;;4.60;0.65;;;11.30;99.90;;;;;;5031746;28;20073;-63
2023/10/31 12:17:58;;;;;;;8.57;0.80;;;11.30;99.90;;;;;;5025043;28;20038;-63
2023/10/31 12:20:24;;;;;;;3.85;0.43;;;11.30;99.90;;;;;;4980123;28;20118;-63
2023/10/31 12:23:02;;;;;;;4.60;1.05;;;11.20;99.90;;;;;;5022674;28;20049;-63
2023/10/31 12:25:28;;;;;;;4.50;0.77;;;11.20;99.90;;;;;;5013516;28;20044;-63
2023/10/31 12:27:54;;;;;;;3.15;0.70;;;11.20;99.90;;;;;;5006912;28;20041;-63
2023/10/31 12:30:22;;;;;;;4.03;0.70;;;11.20;99.90;;;;;;5006547;28;20054;-63
2023/10/31 12:32:57;;;;;;;4.40;0.88;;;11.30;99.90;;;;;;5007547;28;20392;-64
2023/10/31 12:35:25;;;;;;;4.03;0.80;;;11.30;99.90;;;;;;5026402;28;20137;-64
2023/10/31 12:37:52;;;;;;;3.75;1.20;;;11.30;99.90;;;;;;5025651;28;20498;-63
2023/10/31 12:40:19;;;;;;;8.52;0.85;;;11.30;99.90;;;;;;5025085;28;20053;-63
2023/10/31 12:42:46;;;;;;;7.97;0.80;;;11.30;99.90;;;;;;5026289;28;20077;-63